createdAt,value
2019-03-04T00:02:31.188Z,54.79
2019-03-04T00:05:02.403Z,54.74
2019-03-04T00:07:33.622Z,54.81
2019-03-04T00:10:05.698Z,54.76
2019-03-04T00:12:37.412Z,55.02
2019-03-04T00:15:11.728Z,55.02
2019-03-04T00:17:43.067Z,55.02
2019-03-04T00:20:15.264Z,55.24
2019-03-04T00:22:48.747Z,55.21
2019-03-04T00:25:21.400Z,55.64
2019-03-04T00:27:55.094Z,56.01
2019-03-04T00:30:26.826Z,56.01
2019-03-04T00:32:58.007Z,56.33
2019-03-04T00:35:29.189Z,56.71
2019-03-04T00:38:00.365Z,56.94
2019-03-04T00:40:31.595Z,56.79
2019-03-04T00:43:03.061Z,57.09
2019-03-04T00:45:35.145Z,57.19
2019-03-04T00:48:06.398Z,56.57
2019-03-04T00:50:39.207Z,56.19
2019-03-04T00:53:10.425Z,56.20
2019-03-04T00:55:42.421Z,55.96
2019-03-04T00:58:13.634Z,55.96
2019-03-04T01:00:45.872Z,56.06
2019-03-04T01:03:18.443Z,56.35
2019-03-04T01:05:49.691Z,56.76
2019-03-04T01:08:22.769Z,57.33
2019-03-04T01:10:54.027Z,57.86
2019-03-04T01:13:27.227Z,58.56
2019-03-04T01:15:58.467Z,59.04
2019-03-04T01:18:29.700Z,59.21
2019-03-04T01:21:00.920Z,59.64
2019-03-04T01:26:02.042Z,60.78
2019-03-04T01:28:33.204Z,60.95
2019-03-04T01:31:04.599Z,61.26
2019-03-04T01:33:35.808Z,61.91
2019-03-04T01:36:08.276Z,62.21
2019-03-04T01:38:39.460Z,63.01
2019-03-04T01:41:10.611Z,63.31
2019-03-04T01:43:42.722Z,63.84
2019-03-04T01:46:13.862Z,64.67
2019-03-04T01:48:47.401Z,65.31
2019-03-04T01:51:18.624Z,66.01
2019-03-04T01:53:49.931Z,66.45
2019-03-04T01:56:21.125Z,66.55
2019-03-04T01:58:52.415Z,67.02
2019-03-04T02:01:23.575Z,68.02
2019-03-04T02:03:54.760Z,67.92
2019-03-04T02:06:25.977Z,68.40
2019-03-04T02:08:57.427Z,69.09
2019-03-04T02:11:30.882Z,69.08
2019-03-04T02:14:04.375Z,69.38
2019-03-04T02:16:36.658Z,69.59
2019-03-04T02:19:07.958Z,70.06
2019-03-04T02:21:40.478Z,70.38
2019-03-04T02:24:20.908Z,70.69
2019-03-04T02:26:54.327Z,71.04
2019-03-04T02:29:29.136Z,71.47
2019-03-04T02:32:01.389Z,72.03
2019-03-04T02:34:32.794Z,72.37
2019-03-04T02:37:04.007Z,72.42
2019-03-04T02:39:35.796Z,72.40
2019-03-04T02:42:07.741Z,72.48
2019-03-04T02:44:38.984Z,72.58
2019-03-04T02:47:11.791Z,72.77
2019-03-04T02:49:45.279Z,72.82
2019-03-04T02:52:17.588Z,73.12
2019-03-04T02:54:48.786Z,73.29
2019-03-04T02:57:22.402Z,73.37
2019-03-04T02:59:53.570Z,73.43
2019-03-04T03:02:24.769Z,73.65
2019-03-04T03:04:56.908Z,73.65
2019-03-04T03:07:28.613Z,73.95
2019-03-04T03:09:59.784Z,74.17
2019-03-04T03:12:31.165Z,74.54
2019-03-04T03:15:03.911Z,74.38
2019-03-04T03:17:35.414Z,74.88
2019-03-04T03:20:10.243Z,74.98
2019-03-04T03:22:41.432Z,75.18
2019-03-04T03:25:13.633Z,75.52
2019-03-04T03:27:46.539Z,75.69
2019-03-04T03:30:21.767Z,76.00
2019-03-04T03:32:53.003Z,76.22
2019-03-04T03:35:24.219Z,76.39
2019-03-04T03:37:55.464Z,76.53
2019-03-04T03:40:26.719Z,76.65
2019-03-04T03:42:57.978Z,76.97
2019-03-04T03:45:29.156Z,77.23
2019-03-04T03:48:00.428Z,77.31
2019-03-04T03:50:31.561Z,77.43
2019-03-04T03:53:04.991Z,77.84
2019-03-04T03:55:36.196Z,77.95
2019-03-04T03:58:07.502Z,78.05
2019-03-04T04:00:38.626Z,78.25
2019-03-04T04:03:09.927Z,78.04
2019-03-04T04:05:41.089Z,77.95
2019-03-04T04:08:12.231Z,78.04
2019-03-04T04:10:43.633Z,78.27
2019-03-04T04:13:14.990Z,78.48
2019-03-04T04:15:46.240Z,78.43
2019-03-04T04:18:17.343Z,78.40
2019-03-04T04:20:48.611Z,78.53
2019-03-04T04:23:19.833Z,78.66
2019-03-04T04:25:51.562Z,78.34
2019-03-04T04:28:22.826Z,78.46
2019-03-04T04:30:54.101Z,78.54
2019-03-04T04:33:25.436Z,78.62
2019-03-04T04:35:58.081Z,78.94
2019-03-04T04:38:29.311Z,79.19
2019-03-04T04:41:00.564Z,79.19
2019-03-04T04:43:32.893Z,79.33
2019-03-04T04:46:04.212Z,79.25
2019-03-04T04:48:35.325Z,79.24
2019-03-04T04:51:06.568Z,79.64
2019-03-04T04:53:40.955Z,79.74
2019-03-04T04:56:12.147Z,79.83
2019-03-04T04:58:44.486Z,79.81
2019-03-04T05:01:15.749Z,79.95
2019-03-04T05:03:46.908Z,80.08
2019-03-04T05:06:17.332Z,80.34
2019-03-04T05:08:48.594Z,80.43
2019-03-04T05:11:19.725Z,80.61
2019-03-04T05:13:50.924Z,80.80
2019-03-04T05:16:23.259Z,80.89
2019-03-04T05:18:54.435Z,80.90
2019-03-04T05:21:26.518Z,81.11
2019-03-04T05:23:57.778Z,81.04
2019-03-04T05:26:30.517Z,81.07
2019-03-04T05:29:01.740Z,81.24
2019-03-04T05:31:33.960Z,80.92
2019-03-04T05:34:06.792Z,81.08
2019-03-04T05:36:40.019Z,81.23
2019-03-04T05:39:13.041Z,81.12
2019-03-04T05:41:48.649Z,80.95
2019-03-04T05:44:19.950Z,80.92
2019-03-04T05:46:51.153Z,80.94
2019-03-04T05:49:24.362Z,81.20
2019-03-04T05:52:59.786Z,81.48
2019-03-04T05:55:33.282Z,81.58
2019-03-04T05:58:06.580Z,81.96
2019-03-04T06:00:38.755Z,81.72
2019-03-04T06:03:21.564Z,81.74
2019-03-04T06:05:53.024Z,81.41
2019-03-04T06:08:25.305Z,81.44
2019-03-04T06:10:58.065Z,81.44
2019-03-04T06:13:29.243Z,81.50
2019-03-04T06:16:01.640Z,81.42
2019-03-04T06:18:32.859Z,81.30
2019-03-04T06:21:04.139Z,81.34
2019-03-04T06:23:35.426Z,81.40
2019-03-04T06:26:07.553Z,81.65
2019-03-04T06:28:40.465Z,81.53
2019-03-04T06:31:13.902Z,81.53
2019-03-04T06:33:45.078Z,81.20
2019-03-04T06:36:16.302Z,80.82
2019-03-04T06:38:50.389Z,80.38
2019-03-04T06:41:22.632Z,79.79
2019-03-04T06:43:54.341Z,79.68
2019-03-04T06:46:25.552Z,79.50
2019-03-04T06:48:56.659Z,79.33
2019-03-04T06:51:33.668Z,78.55
2019-03-04T06:54:12.359Z,78.54
2019-03-04T06:56:49.772Z,77.81
2019-03-04T06:59:43.834Z,78.00
2019-03-04T07:02:25.429Z,77.54
2019-03-04T07:05:05.606Z,77.10
2019-03-04T07:07:36.889Z,76.33
2019-03-04T07:10:09.110Z,75.71
2019-03-04T07:12:40.372Z,75.68
2019-03-04T07:15:12.537Z,75.82
2019-03-04T07:17:43.845Z,75.83
2019-03-04T07:20:17.475Z,76.21
2019-03-04T07:22:52.791Z,76.41
2019-03-04T07:25:24.407Z,75.94
2019-03-04T07:27:56.870Z,76.09
2019-03-04T07:30:28.023Z,76.38
2019-03-04T07:32:59.217Z,77.02
2019-03-04T07:35:31.273Z,77.21
2019-03-04T07:38:23.876Z,77.37
2019-03-04T07:40:55.762Z,77.14
2019-03-04T07:43:26.988Z,77.36
2019-03-04T07:45:58.232Z,77.23
2019-03-04T07:48:29.365Z,77.12
2019-03-04T07:51:12.610Z,77.02
2019-03-04T07:53:46.646Z,77.12
2019-03-04T07:56:17.704Z,77.42
2019-03-04T07:58:49.410Z,77.01
2019-03-04T08:01:20.636Z,77.08
2019-03-04T08:06:31.895Z,76.41
2019-03-04T08:09:27.326Z,76.12
2019-03-04T08:12:13.681Z,76.04
2019-03-04T08:14:45.877Z,75.94
2019-03-04T08:17:17.220Z,75.92
2019-03-04T08:19:48.951Z,76.09
2019-03-04T08:22:20.107Z,75.50
2019-03-04T08:24:52.761Z,75.13
2019-03-04T08:27:28.703Z,74.56
2019-03-04T08:30:00.059Z,73.87
2019-03-04T08:32:31.658Z,73.31
2019-03-04T08:35:03.179Z,73.23
2019-03-04T08:37:34.364Z,73.34
2019-03-04T08:40:08.683Z,72.87
2019-03-04T08:42:41.460Z,72.95
2019-03-04T08:45:16.527Z,72.38
2019-03-04T08:47:47.787Z,72.15
2019-03-04T08:50:20.579Z,71.75
2019-03-04T08:52:51.809Z,71.48
2019-03-04T08:55:23.123Z,71.46
2019-03-04T08:57:54.519Z,70.79
2019-03-04T09:00:29.601Z,70.74
2019-03-04T09:03:00.920Z,70.77
2019-03-04T09:05:33.684Z,71.15
2019-03-04T09:08:07.953Z,71.14
2019-03-04T09:10:39.094Z,71.41
2019-03-04T09:13:10.401Z,71.10
2019-03-04T09:15:41.609Z,71.19
2019-03-04T09:18:12.898Z,71.23
2019-03-04T09:20:45.224Z,70.98
2019-03-04T09:23:16.900Z,70.85
2019-03-04T09:25:53.711Z,70.57
2019-03-04T09:28:25.008Z,71.14
2019-03-04T09:30:57.219Z,70.88
2019-03-04T09:33:28.871Z,70.59
2019-03-04T09:36:00.174Z,70.57
2019-03-04T09:38:31.698Z,70.93
2019-03-04T09:41:02.857Z,70.44
2019-03-04T09:43:34.200Z,70.67
2019-03-04T09:46:05.381Z,70.32
2019-03-04T09:48:37.640Z,70.94
2019-03-04T09:51:10.304Z,70.78
2019-03-04T09:53:44.224Z,70.28
2019-03-04T09:56:15.599Z,71.31
2019-03-04T09:58:47.224Z,71.83
2019-03-04T10:01:30.574Z,71.69
2019-03-04T10:04:16.941Z,72.28
2019-03-04T10:07:09.255Z,72.12
2019-03-04T10:09:43.700Z,72.46
2019-03-04T10:12:45.389Z,72.35
2019-03-04T10:15:37.770Z,72.23
2019-03-04T10:18:28.427Z,72.00
2019-03-04T10:21:38.404Z,72.69
2019-03-04T10:24:18.035Z,71.96
2019-03-04T10:27:04.305Z,72.27
2019-03-04T10:30:01.348Z,73.08
2019-03-04T10:32:47.854Z,73.04
2019-03-04T10:35:40.216Z,72.43
2019-03-04T10:38:22.532Z,72.54
2019-03-04T10:41:11.582Z,72.61
2019-03-04T10:44:10.013Z,72.79
2019-03-04T10:46:54.957Z,72.77
2019-03-04T10:49:30.206Z,72.27
2019-03-04T10:52:03.409Z,72.35
2019-03-04T10:54:44.402Z,71.68
2019-03-04T10:57:36.914Z,72.71
2019-03-04T11:00:17.285Z,72.37
2019-03-04T11:02:50.191Z,72.51
2019-03-04T11:05:23.100Z,73.18
2019-03-04T11:07:54.854Z,72.43
2019-03-04T11:10:26.458Z,72.76
2019-03-04T11:12:58.174Z,72.75
2019-03-04T11:15:29.379Z,72.19
2019-03-04T11:18:03.268Z,72.37
2019-03-04T11:20:34.877Z,72.21
2019-03-04T11:23:10.372Z,72.37
2019-03-04T11:25:45.267Z,73.62
2019-03-04T11:28:19.582Z,74.21
2019-03-04T11:30:52.691Z,74.41
2019-03-04T11:33:24.305Z,74.39
2019-03-04T11:35:55.642Z,74.75
2019-03-04T11:38:37.475Z,74.62
2019-03-04T11:41:10.943Z,74.91
2019-03-04T11:43:42.202Z,74.97
2019-03-04T11:46:16.181Z,74.86
2019-03-04T11:48:47.563Z,74.83
2019-03-04T11:51:18.856Z,74.80
2019-03-04T11:53:50.089Z,74.29
2019-03-04T11:57:46.603Z,74.27
2019-03-04T12:00:36.263Z,74.35
2019-03-04T12:03:11.568Z,74.45
2019-03-04T12:05:45.973Z,74.28
2019-03-04T12:08:20.145Z,74.11
2019-03-04T12:10:51.913Z,74.54
2019-03-04T12:13:23.105Z,75.00
2019-03-04T12:15:54.406Z,74.58
2019-03-04T12:18:25.629Z,75.04
2019-03-04T12:20:57.361Z,75.53
2019-03-04T12:23:31.251Z,75.62
2019-03-04T12:26:09.321Z,74.85
2019-03-04T12:28:41.653Z,75.11
2019-03-04T12:31:17.975Z,75.39
2019-03-04T12:33:49.299Z,75.34
2019-03-04T12:36:20.558Z,75.39
2019-03-04T12:38:54.876Z,75.26
2019-03-04T12:41:26.167Z,75.21
2019-03-04T12:52:33.571Z,74.94
2019-03-04T12:55:05.459Z,75.60
2019-03-04T12:57:36.638Z,75.55
2019-03-04T13:00:14.450Z,75.80
2019-03-04T13:02:57.157Z,75.87
2019-03-04T13:05:20.902Z,76.11
2019-03-04T13:07:52.057Z,76.33
2019-03-04T13:10:24.005Z,75.87
2019-03-04T13:12:55.158Z,76.65
2019-03-04T13:15:31.666Z,76.92
2019-03-04T13:18:03.392Z,76.63
2019-03-04T13:20:34.787Z,76.91
2019-03-04T13:23:06.123Z,76.58
2019-03-04T13:25:37.324Z,76.24
2019-03-04T13:28:08.852Z,76.09
2019-03-04T13:30:41.362Z,76.19
2019-03-04T13:33:12.529Z,75.73
2019-03-04T13:35:44.936Z,75.64
2019-03-04T13:38:16.251Z,75.46
2019-03-04T13:40:48.477Z,75.80
2019-03-04T13:43:19.649Z,75.73
2019-03-04T13:48:24.986Z,75.59
2019-03-04T13:51:00.040Z,75.16
2019-03-04T13:53:31.878Z,75.53
2019-03-04T13:56:03.137Z,75.36
2019-03-04T13:58:34.870Z,74.97
2019-03-04T14:01:06.346Z,75.20
2019-03-04T14:03:38.158Z,74.48
2019-03-04T14:06:09.396Z,74.84
2019-03-04T14:08:40.736Z,74.92
2019-03-04T14:11:12.950Z,74.53
2019-03-04T14:13:45.202Z,74.23
2019-03-04T14:16:19.160Z,74.62
2019-03-04T14:18:50.422Z,74.52
2019-03-04T14:21:21.689Z,74.56
2019-03-04T14:23:52.944Z,74.75
2019-03-04T14:26:24.957Z,74.57
2019-03-04T14:28:57.765Z,74.45
2019-03-04T14:31:31.535Z,74.39
2019-03-04T14:34:05.932Z,74.23
2019-03-04T14:36:37.546Z,74.55
2019-03-04T14:39:11.380Z,74.34
2019-03-04T14:41:42.638Z,74.16
2019-03-04T14:45:04.912Z,74.61
2019-03-04T14:47:39.610Z,74.58
2019-03-04T14:50:12.885Z,74.59
2019-03-04T14:52:44.134Z,74.26
2019-03-04T14:55:40.007Z,74.85
2019-03-04T14:58:12.888Z,74.84
2019-03-04T15:00:46.186Z,75.02
2019-03-04T15:03:24.170Z,75.33
2019-03-04T15:06:06.312Z,75.38
2019-03-04T15:08:30.509Z,75.40
2019-03-04T15:11:01.968Z,75.36
2019-03-04T15:13:33.322Z,75.51
2019-03-04T15:16:04.640Z,75.68
2019-03-04T15:18:35.869Z,75.09
2019-03-04T15:21:07.216Z,75.21
2019-03-04T15:23:38.422Z,75.13
2019-03-04T15:26:09.743Z,75.27
2019-03-04T15:28:42.547Z,75.45
2019-03-04T15:31:14.040Z,75.46
2019-03-04T15:33:45.462Z,75.66
2019-03-04T15:36:16.990Z,75.72
2019-03-04T15:38:48.271Z,75.73
2019-03-04T15:41:20.526Z,75.95
2019-03-04T15:43:51.763Z,75.96
2019-03-04T15:46:23.063Z,76.42
2019-03-04T15:48:54.303Z,76.44
2019-03-04T15:51:26.931Z,75.88
2019-03-04T15:53:59.383Z,75.58
2019-03-04T15:56:31.554Z,75.67
2019-03-04T15:59:03.560Z,75.65
2019-03-04T16:01:35.023Z,75.66
2019-03-04T16:04:07.292Z,75.71
2019-03-04T16:06:41.974Z,76.37
2019-03-04T16:09:18.734Z,75.75
2019-03-04T16:11:51.296Z,75.44
2019-03-04T16:14:24.213Z,75.92
2019-03-04T16:16:57.371Z,76.05
2019-03-04T16:19:28.599Z,76.22
2019-03-04T16:22:01.511Z,76.31
2019-03-04T16:24:35.046Z,76.52
2019-03-04T16:27:12.020Z,75.90
2019-03-04T16:29:45.856Z,76.68
2019-03-04T16:32:17.079Z,76.46
2019-03-04T16:34:48.308Z,76.27
2019-03-04T16:37:19.562Z,76.60
2019-03-04T16:39:52.380Z,76.61
2019-03-04T16:42:23.814Z,77.15
2019-03-04T16:44:55.171Z,77.11
2019-03-04T16:47:27.149Z,76.96
2019-03-04T16:50:01.185Z,76.75
2019-03-04T16:52:35.185Z,76.56
2019-03-04T16:55:09.298Z,76.91
2019-03-04T16:57:40.512Z,76.59
2019-03-04T17:00:17.013Z,76.39
2019-03-04T17:02:51.164Z,76.31
2019-03-04T17:05:22.377Z,75.99
2019-03-04T17:07:54.460Z,75.71
2019-03-04T17:10:26.343Z,75.91
2019-03-04T17:12:59.294Z,74.61
2019-03-04T17:15:33.471Z,75.20
2019-03-04T17:18:05.896Z,74.33
2019-03-04T17:20:37.083Z,74.09
2019-03-04T17:23:08.481Z,74.01
2019-03-04T17:25:41.524Z,73.99
2019-03-04T17:28:13.868Z,73.20
2019-03-04T17:30:45.615Z,72.90
2019-03-04T17:33:16.944Z,72.46
2019-03-04T17:35:48.186Z,71.33
2019-03-04T17:38:21.727Z,71.57
2019-03-04T17:40:52.978Z,72.39
2019-03-04T17:43:24.722Z,72.33
2019-03-04T17:45:55.975Z,72.41
2019-03-04T17:48:27.248Z,72.95
2019-03-04T17:50:58.538Z,72.07
2019-03-04T17:53:30.201Z,71.07
2019-03-04T17:56:01.525Z,70.94
2019-03-04T17:58:33.863Z,70.78
2019-03-04T18:01:05.383Z,70.48
2019-03-04T18:03:36.513Z,71.54
2019-03-04T18:06:07.745Z,70.18
2019-03-04T18:08:39.017Z,70.84
2019-03-04T18:11:10.225Z,70.39
2019-03-04T18:13:41.546Z,71.70
2019-03-04T18:16:12.816Z,71.46
2019-03-04T18:18:45.706Z,70.47
2019-03-04T18:21:17.602Z,70.39
2019-03-04T18:23:49.825Z,70.12
2019-03-04T18:26:27.132Z,70.61
2019-03-04T18:29:04.449Z,69.70
2019-03-04T18:31:50.693Z,69.12
2019-03-04T18:34:30.862Z,69.73
2019-03-04T18:37:05.249Z,68.96
2019-03-04T18:39:45.585Z,69.14
2019-03-04T18:42:54.974Z,69.49
2019-03-04T18:45:49.045Z,70.03
2019-03-04T18:48:42.257Z,69.28
2019-03-04T18:51:13.713Z,69.10
2019-03-04T18:53:46.696Z,68.64
2019-03-04T18:56:22.046Z,69.09
2019-03-04T18:58:52.304Z,69.09
2019-03-04T19:01:24.062Z,68.88
2019-03-04T19:03:55.207Z,69.33
2019-03-04T19:06:26.499Z,70.01
2019-03-04T19:08:57.781Z,69.50
2019-03-04T19:11:29.217Z,69.53
2019-03-04T19:14:00.551Z,69.32
2019-03-04T19:16:32.083Z,69.20
2019-03-04T19:19:03.226Z,68.87
2019-03-04T19:21:35.733Z,69.26
2019-03-04T19:24:07.072Z,68.92
2019-03-04T19:26:38.323Z,69.37
2019-03-04T19:29:10.876Z,69.13
2019-03-04T19:31:42.567Z,68.39
2019-03-04T19:34:17.293Z,68.20
2019-03-04T19:36:50.345Z,68.31
2019-03-04T19:39:21.723Z,68.29
2019-03-04T19:41:52.851Z,67.98
2019-03-04T19:44:24.085Z,67.63
2019-03-04T19:46:55.291Z,67.74
2019-03-04T19:49:26.605Z,67.16
2019-03-04T19:51:58.021Z,67.33
2019-03-04T19:54:31.215Z,66.75
2019-03-04T19:57:04.818Z,66.99
2019-03-04T19:59:36.067Z,66.60
2019-03-04T20:02:07.363Z,66.65
2019-03-04T20:04:38.564Z,66.34
2019-03-04T20:07:11.356Z,66.08
2019-03-04T20:09:42.416Z,65.74
2019-03-04T20:12:12.889Z,65.42
2019-03-04T20:14:44.104Z,65.89
2019-03-04T20:17:15.993Z,65.10
2019-03-04T20:19:47.108Z,65.65
2019-03-04T20:22:19.145Z,65.12
2019-03-04T20:24:50.459Z,65.01
2019-03-04T20:27:21.607Z,65.05
2019-03-04T20:29:54.362Z,64.69
2019-03-04T20:32:26.828Z,64.76
2019-03-04T20:34:58.016Z,64.50
2019-03-04T20:37:29.234Z,64.09
2019-03-04T20:40:00.522Z,64.07
2019-03-04T20:42:36.271Z,64.25
2019-03-04T20:45:17.824Z,64.40
2019-03-04T20:47:51.193Z,64.05
2019-03-04T20:50:25.759Z,64.00
2019-03-04T20:52:57.017Z,63.91
2019-03-04T20:55:28.291Z,63.88
2019-03-04T20:57:59.327Z,64.05
2019-03-04T21:00:33.605Z,63.68
2019-03-04T21:03:08.287Z,63.66
2019-03-04T21:05:43.994Z,63.68
2019-03-04T21:08:15.536Z,63.78
2019-03-04T21:10:51.140Z,63.99
2019-03-04T21:13:34.904Z,63.88
2019-03-04T21:15:57.011Z,64.13
2019-03-04T21:18:30.248Z,63.83
2019-03-04T21:21:03.615Z,64.16
2019-03-04T21:23:35.768Z,64.13
2019-03-04T21:26:11.303Z,64.27
2019-03-04T21:29:15.817Z,64.39
2019-03-04T21:32:14.622Z,64.82
2019-03-04T21:34:58.231Z,64.90
2019-03-04T21:37:32.934Z,64.94
2019-03-04T21:40:25.878Z,65.11
2019-03-04T21:43:12.006Z,64.88
2019-03-04T21:45:50.342Z,64.82
2019-03-04T21:48:42.576Z,65.10
2019-03-04T21:51:26.100Z,65.47
2019-03-04T21:53:58.935Z,65.52
2019-03-04T21:56:52.232Z,65.78
2019-03-04T21:59:25.197Z,65.62
2019-03-04T22:02:17.707Z,65.78
2019-03-04T22:04:48.945Z,65.46
2019-03-04T22:07:20.239Z,65.67
2019-03-04T22:09:51.579Z,65.49
2019-03-04T22:12:22.781Z,65.38
2019-03-04T22:14:53.949Z,65.17
2019-03-04T22:17:25.467Z,65.09
2019-03-04T22:19:56.733Z,65.23
2019-03-04T22:22:28.072Z,65.09
2019-03-04T22:25:01.877Z,64.93
2019-03-04T22:27:34.234Z,65.14
2019-03-04T22:30:11.495Z,65.29
2019-03-04T22:32:42.823Z,65.02
2019-03-04T22:35:17.209Z,64.96
2019-03-04T22:37:48.612Z,65.21
2019-03-04T22:40:27.722Z,64.99
2019-03-04T22:42:58.902Z,64.98
2019-03-04T22:45:30.110Z,64.77
2019-03-04T22:48:01.290Z,64.59
2019-03-04T22:50:32.709Z,64.04
2019-03-04T22:53:03.941Z,64.16
2019-03-04T22:55:38.645Z,63.99
2019-03-04T22:58:09.910Z,64.40
2019-03-04T23:00:54.896Z,63.66
2019-03-04T23:03:28.262Z,64.09
2019-03-04T23:06:08.135Z,63.89
2019-03-04T23:08:39.907Z,63.96
2019-03-04T23:11:11.209Z,63.77
2019-03-04T23:13:51.723Z,63.91
2019-03-04T23:16:33.255Z,64.12
2019-03-04T23:19:04.456Z,63.91
2019-03-04T23:21:36.242Z,63.97
2019-03-04T23:24:07.416Z,63.97
2019-03-04T23:26:38.805Z,63.71
2019-03-04T23:29:09.957Z,64.30
2019-03-04T23:31:41.213Z,63.69
2019-03-04T23:34:12.472Z,63.89
2019-03-04T23:36:43.800Z,63.86
2019-03-04T23:39:15.096Z,63.73
2019-03-04T23:41:46.435Z,63.87
2019-03-04T23:44:22.642Z,63.82
2019-03-04T23:46:54.313Z,63.69
2019-03-04T23:49:29.949Z,63.40
2019-03-04T23:52:01.887Z,63.61
2019-03-04T23:54:33.077Z,63.40
2019-03-04T23:57:04.384Z,63.95
2019-03-04T23:59:35.607Z,63.72
